Time;durP1;ratioP1;P1;durP2;ratioP2;P2;SDS_P1;SDS_P2;PMS_P1;PMS_P2;Temp;Humidity;BMP_temperature;BMP_pressure;BME280_temperature;BME280_humidity;BME280_pressure;Samples;Min_cycle;Max_cycle;Signal;HPM_P1;HPM_P2
2022/12/05 06:46:31;;;;;;;11.40;7.15;;;;;;;;;;7302191;19;20030;-79
2022/12/05 06:48:56;;;;;;;13.57;8.30;;;;;;;;;;7330250;19;20014;-80
2022/12/05 06:51:22;;;;;;;14.43;8.85;;;;;;;;;;7351869;19;20021;-79
2022/12/05 06:53:48;;;;;;;17.65;10.38;;;;;;;;;;7352724;19;20026;-79
2022/12/05 06:56:15;;;;;;;14.15;8.65;;;;;;;;;;7362561;19;20010;-80
2022/12/05 06:58:41;;;;;;;15.25;9.77;;;;;;;;;;7365172;19;20007;-80
2022/12/05 07:03:58;;;;;;;14.40;8.60;;;;;;;;;;7360471;19;20369;-78
2022/12/05 07:06:23;;;;;;;12.32;8.10;;;;;;;;;;7355605;19;20022;-78
2022/12/05 07:08:48;;;;;;;14.43;8.30;;;;;;;;;;7356740;19;20097;-79
2022/12/05 07:11:15;;;;;;;14.20;9.02;;;;;;;;;;7353625;19;20015;-86
2022/12/05 07:13:40;;;;;;;15.13;8.93;;;;;;;;;;7368245;19;20006;-83
2022/12/05 07:16:08;;;;;;;17.05;9.02;;;;;;;;;;7362788;19;19995;-82
2022/12/05 07:18:34;;;;;;;13.70;9.02;;;;;;;;;;7358641;19;20018;-83
2022/12/05 07:21:00;;;;;;;12.63;8.27;;;;;;;;;;7368174;19;20095;-82
2022/12/05 07:23:26;;;;;;;14.85;8.38;;;;;;;;;;7358998;19;20006;-83
2022/12/05 07:25:51;;;;;;;17.13;9.48;;;;;;;;;;7370639;19;20442;-82
2022/12/05 07:28:16;;;;;;;17.25;9.23;;;;;;;;;;7366223;19;20433;-82
2022/12/05 07:30:41;;;;;;;18.67;10.73;;;;;;;;;;7369546;19;20078;-82
2022/12/05 07:33:07;;;;;;;18.07;9.60;;;;;;;;;;7360929;19;20025;-82
2022/12/05 07:35:32;;;;;;;17.90;9.48;;;;;;;;;;7366575;19;20255;-82
2022/12/05 07:37:57;;;;;;;18.07;9.87;;;;;;;;;;7364356;19;20007;-82
2022/12/05 07:40:22;;;;;;;19.08;10.00;;;;;;;;;;7364926;19;20823;-83
2022/12/05 07:42:48;;;;;;;18.73;10.52;;;;;;;;;;7364180;19;20005;-83
2022/12/05 07:45:13;;;;;;;18.55;10.10;;;;;;;;;;7363667;19;20096;-82
2022/12/05 07:47:38;;;;;;;22.30;12.18;;;;;;;;;;7363618;19;20486;-83
2022/12/05 07:50:04;;;;;;;24.60;12.05;;;;;;;;;;7362513;19;20463;-83
2022/12/05 07:52:29;;;;;;;21.08;10.23;;;;;;;;;;7361274;19;20395;-83
2022/12/05 07:54:54;;;;;;;17.20;9.48;;;;;;;;;;7358391;19;20427;-83
2022/12/05 07:57:19;;;;;;;17.20;8.65;;;;;;;;;;7361790;19;20029;-83
2022/12/05 07:59:44;;;;;;;17.10;8.93;;;;;;;;;;7363885;19;20007;-83
2022/12/05 08:02:10;;;;;;;17.73;9.20;;;;;;;;;;7362900;19;19994;-83
2022/12/05 08:04:35;;;;;;;17.33;9.07;;;;;;;;;;7365908;19;20006;-83
2022/12/05 08:07:00;;;;;;;19.90;10.23;;;;;;;;;;7363756;19;20019;-83
2022/12/05 08:09:26;;;;;;;22.67;10.95;;;;;;;;;;7361570;19;20026;-84
2022/12/05 08:11:51;;;;;;;18.48;10.15;;;;;;;;;;7362658;19;20018;-82
2022/12/05 08:14:16;;;;;;;20.92;11.32;;;;;;;;;;7363753;19;20589;-82
2022/12/05 08:16:42;;;;;;;21.58;11.70;;;;;;;;;;7365909;19;20010;-83
2022/12/05 08:19:09;;;;;;;23.08;12.73;;;;;;;;;;7372776;19;20011;-83
2022/12/05 08:21:35;;;;;;;25.27;13.15;;;;;;;;;;7372287;19;20376;-83
2022/12/05 08:24:00;;;;;;;23.27;12.13;;;;;;;;;;7372761;19;20010;-82
2022/12/05 08:26:26;;;;;;;22.00;11.88;;;;;;;;;;7374306;19;20007;-82
2022/12/05 08:29:02;;;;;;;23.55;11.80;;;;;;;;;;7376360;19;19999;-82
2022/12/05 08:31:29;;;;;;;21.63;12.27;;;;;;;;;;7370923;19;20330;-83
2022/12/05 08:33:55;;;;;;;22.15;12.35;;;;;;;;;;7372419;19;19995;-83
2022/12/05 08:36:20;;;;;;;19.98;10.63;;;;;;;;;;7373386;19;20014;-84
2022/12/05 08:38:46;;;;;;;19.52;10.70;;;;;;;;;;7372385;19;20301;-79
2022/12/05 08:41:15;;;;;;;19.33;10.93;;;;;;;;;;7375852;19;20010;-81
2022/12/05 08:43:41;;;;;;;23.05;12.13;;;;;;;;;;7371431;19;19995;-84
2022/12/05 08:46:07;;;;;;;20.80;11.52;;;;;;;;;;7372790;19;20336;-81
2022/12/05 08:48:32;;;;;;;17.98;10.15;;;;;;;;;;7366607;19;20081;-84
2022/12/05 08:50:58;;;;;;;19.55;11.57;;;;;;;;;;7371368;19;20431;-84
2022/12/05 08:53:23;;;;;;;21.48;11.27;;;;;;;;;;7370845;19;20381;-84
2022/12/05 08:55:48;;;;;;;19.75;10.52;;;;;;;;;;7375113;19;20070;-82
2022/12/05 08:58:14;;;;;;;19.05;10.25;;;;;;;;;;7372807;19;20018;-82
2022/12/05 09:00:40;;;;;;;19.50;10.50;;;;;;;;;;7371173;19;20010;-85
2022/12/05 09:03:05;;;;;;;16.52;9.38;;;;;;;;;;7371964;19;19997;-83
2022/12/05 09:05:30;;;;;;;15.30;8.90;;;;;;;;;;7371135;19;20027;-83
2022/12/05 09:07:56;;;;;;;15.40;9.15;;;;;;;;;;7372307;19;20487;-85
2022/12/05 09:10:21;;;;;;;18.30;9.65;;;;;;;;;;7372736;19;20018;-85
2022/12/05 09:12:46;;;;;;;14.73;8.25;;;;;;;;;;7373279;19;20624;-83
2022/12/05 09:15:12;;;;;;;14.68;8.63;;;;;;;;;;7376088;19;20014;-84
2022/12/05 09:17:37;;;;;;;13.55;8.15;;;;;;;;;;7368476;19;20442;-85
2022/12/05 09:20:03;;;;;;;13.10;7.97;;;;;;;;;;7373280;19;20030;-84
2022/12/05 09:22:28;;;;;;;13.40;7.18;;;;;;;;;;7372401;19;20019;-83
2022/12/05 09:24:54;;;;;;;11.32;6.38;;;;;;;;;;7369943;19;20019;-84
2022/12/05 09:27:19;;;;;;;13.23;7.40;;;;;;;;;;7372686;19;20447;-84
2022/12/05 09:29:44;;;;;;;12.55;7.50;;;;;;;;;;7373997;19;20079;-84
2022/12/05 09:32:09;;;;;;;11.70;6.70;;;;;;;;;;7371078;19;20010;-84
2022/12/05 09:34:37;;;;;;;12.57;7.55;;;;;;;;;;7365286;19;20023;-84
2022/12/05 09:37:04;;;;;;;11.77;6.88;;;;;;;;;;7372334;19;20082;-84
2022/12/05 09:39:29;;;;;;;12.52;6.75;;;;;;;;;;7361162;19;20024;-84
2022/12/05 09:42:17;;;;;;;12.60;6.38;;;;;;;;;;7371394;19;20006;-84
2022/12/05 09:45:01;;;;;;;13.15;7.13;;;;;;;;;;7370564;19;20034;-84
2022/12/05 09:47:44;;;;;;;12.10;6.55;;;;;;;;;;7368552;19;20014;-84
2022/12/05 09:50:12;;;;;;;13.82;6.28;;;;;;;;;;7372380;19;20014;-84
2022/12/05 09:52:40;;;;;;;13.43;7.07;;;;;;;;;;7370329;19;20034;-84
2022/12/05 09:55:10;;;;;;;11.00;5.80;;;;;;;;;;7367518;19;20030;-85
2022/12/05 09:57:37;;;;;;;10.52;6.32;;;;;;;;;;7366732;19;20018;-83
2022/12/05 10:00:04;;;;;;;12.38;6.07;;;;;;;;;;7371528;19;20010;-84
2022/12/05 10:02:43;;;;;;;9.65;5.18;;;;;;;;;;7370707;19;20019;-84
2022/12/05 10:05:28;;;;;;;10.05;5.72;;;;;;;;;;7369038;19;20148;-84
2022/12/05 10:08:10;;;;;;;10.40;5.93;;;;;;;;;;7368300;19;20038;-85
2022/12/05 10:10:54;;;;;;;10.38;5.60;;;;;;;;;;7366281;19;20025;-84
2022/12/05 10:13:28;;;;;;;10.77;6.28;;;;;;;;;;7373982;19;20102;-85
2022/12/05 10:15:56;;;;;;;11.77;6.43;;;;;;;;;;7370000;19;20007;-84
2022/12/05 10:18:21;;;;;;;12.63;6.35;;;;;;;;;;7362606;19;20068;-83
2022/12/05 10:21:05;;;;;;;11.48;6.85;;;;;;;;;;7368791;19;20010;-85
2022/12/05 10:23:51;;;;;;;12.40;6.47;;;;;;;;;;7365860;19;20062;-84
2022/12/05 10:26:16;;;;;;;13.13;7.35;;;;;;;;;;7370472;19;20014;-85
2022/12/05 10:29:00;;;;;;;13.70;8.02;;;;;;;;;;7369537;19;20099;-85
2022/12/05 10:31:29;;;;;;;14.57;8.35;;;;;;;;;;7367406;19;20022;-84
2022/12/05 10:34:01;;;;;;;13.95;7.85;;;;;;;;;;7365676;19;20415;-84
2022/12/05 10:36:26;;;;;;;13.45;7.55;;;;;;;;;;7369442;19;20041;-85
2022/12/05 10:38:51;;;;;;;14.82;7.68;;;;;;;;;;7366128;19;20026;-81
2022/12/05 10:41:17;;;;;;;16.67;8.25;;;;;;;;;;7364678;19;20044;-81
2022/12/05 10:43:44;;;;;;;15.43;8.05;;;;;;;;;;7365060;19;20011;-83
2022/12/05 10:46:10;;;;;;;13.40;7.40;;;;;;;;;;7369587;19;20331;-83
2022/12/05 10:48:37;;;;;;;13.68;7.65;;;;;;;;;;7366785;19;20075;-82
2022/12/05 10:51:02;;;;;;;16.98;7.57;;;;;;;;;;7365812;19;20005;-85
2022/12/05 10:53:31;;;;;;;12.40;7.47;;;;;;;;;;7367505;19;20011;-84
2022/12/05 10:55:56;;;;;;;15.60;8.35;;;;;;;;;;7369331;19;20022;-84
2022/12/05 10:58:27;;;;;;;14.50;7.38;;;;;;;;;;7370827;19;20397;-85
2022/12/05 11:00:56;;;;;;;13.32;7.20;;;;;;;;;;7370095;19;20018;-84
2022/12/05 11:03:33;;;;;;;14.80;7.90;;;;;;;;;;7369667;19;19998;-86
2022/12/05 11:05:59;;;;;;;14.27;7.95;;;;;;;;;;7369262;19;20637;-86
2022/12/05 11:08:30;;;;;;;13.75;7.53;;;;;;;;;;7369869;19;20022;-85
2022/12/05 11:11:04;;;;;;;17.20;8.10;;;;;;;;;;7365095;19;20158;-85
2022/12/05 11:13:29;;;;;;;15.88;7.75;;;;;;;;;;7367849;19;20681;-83
2022/12/05 11:15:54;;;;;;;15.45;8.45;;;;;;;;;;7369897;19;20017;-85
2022/12/05 11:18:33;;;;;;;15.82;8.70;;;;;;;;;;7360792;19;20003;-84
2022/12/05 11:21:09;;;;;;;15.45;8.35;;;;;;;;;;7368663;19;20043;-84
2022/12/05 11:23:34;;;;;;;14.88;7.72;;;;;;;;;;7362278;19;20010;-84
2022/12/05 11:25:59;;;;;;;15.93;8.75;;;;;;;;;;7367301;19;20111;-84
2022/12/05 11:28:29;;;;;;;14.88;9.25;;;;;;;;;;7367591;19;20513;-84
2022/12/05 11:30:59;;;;;;;14.00;7.60;;;;;;;;;;7369311;19;20038;-85
2022/12/05 11:33:26;;;;;;;14.40;7.50;;;;;;;;;;7370461;19;20100;-84
2022/12/05 11:35:52;;;;;;;13.57;7.50;;;;;;;;;;7371621;19;20362;-85
2022/12/05 11:38:19;;;;;;;12.32;7.43;;;;;;;;;;7369645;19;20519;-85
2022/12/05 11:40:44;;;;;;;14.25;7.78;;;;;;;;;;7353407;19;20460;-85
2022/12/05 11:43:28;;;;;;;14.68;8.10;;;;;;;;;;7369310;19;20017;-85
2022/12/05 11:45:53;;;;;;;;;;;;;;;;;;7369030;19;20139;-85
2022/12/05 11:48:37;;;;;;;13.45;7.90;;;;;;;;;;7367108;19;20078;-83
2022/12/05 11:51:05;;;;;;;13.10;7.78;;;;;;;;;;7367755;19;20015;-84
2022/12/05 11:53:31;;;;;;;13.40;7.88;;;;;;;;;;7372090;19;20136;-84
2022/12/05 11:56:06;;;;;;;15.00;7.70;;;;;;;;;;7375603;19;20007;-84
2022/12/05 11:58:34;;;;;;;15.02;8.13;;;;;;;;;;7375500;19;20379;-83
2022/12/05 12:00:59;;;;;;;15.35;8.45;;;;;;;;;;7368827;19;20022;-77
2022/12/05 12:03:41;;;;;;;14.55;7.95;;;;;;;;;;7368351;19;20006;-77
2022/12/05 12:06:22;;;;;;;15.40;8.40;;;;;;;;;;7363279;19;20404;-76
2022/12/05 12:08:55;;;;;;;14.38;8.02;;;;;;;;;;7366986;19;20021;-78
2022/12/05 12:11:23;;;;;;;14.85;7.70;;;;;;;;;;7370063;19;20098;-77
2022/12/05 12:13:54;;;;;;;14.75;8.38;;;;;;;;;;7368668;19;20024;-78
2022/12/05 12:16:33;;;;;;;18.67;9.63;;;;;;;;;;7346659;19;20032;-75
2022/12/05 12:19:04;;;;;;;15.80;8.45;;;;;;;;;;7352007;19;20011;-77
2022/12/05 12:21:48;;;;;;;14.50;8.10;;;;;;;;;;7362425;19;20011;-77
2022/12/05 12:24:31;;;;;;;15.43;8.77;;;;;;;;;;7362187;19;20023;-77
2022/12/05 12:27:02;;;;;;;15.23;8.50;;;;;;;;;;7363149;19;20324;-79
2022/12/05 12:29:33;;;;;;;15.52;8.10;;;;;;;;;;7366975;19;20022;-81
2022/12/05 12:32:13;;;;;;;14.10;8.93;;;;;;;;;;7361125;19;20052;-79
2022/12/05 12:34:39;;;;;;;17.10;9.27;;;;;;;;;;7368913;19;20018;-80
2022/12/05 12:37:23;;;;;;;17.90;8.68;;;;;;;;;;7370569;19;20022;-80
2022/12/05 12:39:57;;;;;;;15.27;9.07;;;;;;;;;;7349314;19;20014;-80
2022/12/05 12:42:24;;;;;;;19.70;9.18;;;;;;;;;;7368650;19;20003;-79
2022/12/05 12:45:11;;;;;;;20.00;9.65;;;;;;;;;;7367332;19;20011;-80
2022/12/05 12:47:51;;;;;;;16.20;9.20;;;;;;;;;;7369406;19;20009;-78
2022/12/05 12:50:23;;;;;;;18.08;9.98;;;;;;;;;;7368475;19;20003;-79
2022/12/05 12:53:04;;;;;;;17.88;10.02;;;;;;;;;;7358651;19;20103;-78
2022/12/05 12:55:37;;;;;;;21.33;10.95;;;;;;;;;;7363928;19;20090;-80
2022/12/05 12:58:05;;;;;;;21.60;10.73;;;;;;;;;;7365713;19;20488;-77
2022/12/05 13:00:41;;;;;;;21.75;11.07;;;;;;;;;;7371829;19;20031;-80
2022/12/05 13:03:15;;;;;;;26.08;11.90;;;;;;;;;;7354836;19;20010;-79
2022/12/05 13:05:42;;;;;;;25.35;12.38;;;;;;;;;;7363305;19;20014;-80
2022/12/05 13:08:26;;;;;;;46.50;13.10;;;;;;;;;;7368104;19;20010;-83
2022/12/05 13:10:52;;;;;;;199.05;19.90;;;;;;;;;;7364287;19;20007;-82
2022/12/05 13:13:29;;;;;;;72.68;14.20;;;;;;;;;;7366830;19;20396;-83
2022/12/05 13:15:56;;;;;;;22.00;12.15;;;;;;;;;;7361528;19;20019;-81
2022/12/05 13:18:23;;;;;;;26.65;13.68;;;;;;;;;;7373862;19;20746;-81
2022/12/05 13:20:50;;;;;;;29.52;12.45;;;;;;;;;;7373959;19;20019;-81
2022/12/05 13:23:17;;;;;;;27.15;12.15;;;;;;;;;;7370097;19;20042;-82
2022/12/05 13:25:43;;;;;;;26.48;13.88;;;;;;;;;;7367391;19;20216;-80
2022/12/05 13:28:24;;;;;;;28.67;12.95;;;;;;;;;;7371837;19;20704;-81
2022/12/05 13:31:03;;;;;;;27.27;13.13;;;;;;;;;;7370264;19;20529;-83
2022/12/05 13:33:30;;;;;;;23.13;12.43;;;;;;;;;;7373448;19;20362;-83
2022/12/05 13:44:29;;;;;;;23.40;12.50;;;;;;;;;;7375549;19;20018;-80
2022/12/05 13:46:54;;;;;;;23.40;11.03;;;;;;;;;;7373669;19;20069;-80
2022/12/05 13:49:27;;;;;;;27.35;12.75;;;;;;;;;;7378594;19;20402;-81
2022/12/05 13:51:53;;;;;;;24.80;12.35;;;;;;;;;;7376388;19;20018;-82
2022/12/05 13:54:27;;;;;;;22.52;11.40;;;;;;;;;;7362683;19;20310;-81
2022/12/05 13:56:54;;;;;;;23.02;12.52;;;;;;;;;;7377133;19;20026;-80
2022/12/05 13:59:38;;;;;;;19.90;11.40;;;;;;;;;;7358332;19;20014;-81
2022/12/05 14:02:23;;;;;;;23.33;11.95;;;;;;;;;;7371461;19;20006;-81
2022/12/05 14:04:52;;;;;;;21.55;11.88;;;;;;;;;;7376868;19;20002;-80
2022/12/05 14:07:37;;;;;;;26.35;11.77;;;;;;;;;;7380956;19;20087;-80
2022/12/05 14:10:03;;;;;;;24.55;13.82;;;;;;;;;;7376659;19;20011;-80
2022/12/05 14:12:29;;;;;;;24.48;11.88;;;;;;;;;;7383512;19;20225;-83
2022/12/05 14:14:54;;;;;;;24.75;12.35;;;;;;;;;;7379554;19;20010;-79
2022/12/05 14:17:21;;;;;;;24.65;13.10;;;;;;;;;;7379140;19;20031;-81
2022/12/05 14:19:52;;;;;;;24.17;12.82;;;;;;;;;;7380618;19;20031;-78
2022/12/05 14:22:28;;;;;;;67.97;15.10;;;;;;;;;;7383315;19;20434;-82
2022/12/05 14:25:02;;;;;;;35.67;13.82;;;;;;;;;;7378400;19;20115;-80
2022/12/05 14:27:27;;;;;;;28.90;13.23;;;;;;;;;;7386561;19;20027;-83
2022/12/05 14:30:04;;;;;;;41.63;12.80;;;;;;;;;;7384992;19;20015;-83
2022/12/05 14:32:29;;;;;;;29.63;13.25;;;;;;;;;;7385943;19;20415;-82
2022/12/05 14:35:04;;;;;;;24.38;11.57;;;;;;;;;;7386772;19;20035;-79
2022/12/05 14:37:31;;;;;;;45.10;14.48;;;;;;;;;;7388698;19;20046;-79
2022/12/05 14:39:58;;;;;;;92.25;14.98;;;;;;;;;;7386465;19;20025;-80
2022/12/05 14:42:49;;;;;;;44.50;11.70;;;;;;;;;;7370178;19;20529;-80
2022/12/05 14:45:26;;;;;;;45.95;13.00;;;;;;;;;;7368332;19;20006;-77
2022/12/05 14:47:54;;;;;;;54.42;13.30;;;;;;;;;;7380637;19;20078;-80
2022/12/05 14:50:20;;;;;;;26.05;12.35;;;;;;;;;;7389927;19;19999;-80
2022/12/05 14:53:05;;;;;;;57.40;13.30;;;;;;;;;;7392001;19;19998;-77
2022/12/05 14:55:30;;;;;;;103.75;15.27;;;;;;;;;;7393486;19;20027;-82
2022/12/05 14:57:55;;;;;;;54.45;14.35;;;;;;;;;;7394889;19;19994;-80
2022/12/05 15:00:21;;;;;;;63.55;14.63;;;;;;;;;;7398408;19;20019;-79
2022/12/05 15:02:47;;;;;;;28.25;12.23;;;;;;;;;;7395877;19;19991;-80
2022/12/05 15:05:21;;;;;;;32.28;12.48;;;;;;;;;;7389497;19;20442;-81
2022/12/05 15:07:47;;;;;;;46.30;12.48;;;;;;;;;;7392467;19;20035;-79
2022/12/05 15:10:12;;;;;;;22.58;11.30;;;;;;;;;;7392653;19;19995;-82
2022/12/05 15:12:45;;;;;;;24.70;11.18;;;;;;;;;;7395266;19;20007;-82
2022/12/05 15:15:16;;;;;;;34.75;11.63;;;;;;;;;;7392031;19;20002;-80
2022/12/05 15:18:06;;;;;;;21.83;10.77;;;;;;;;;;7392299;19;20014;-82
2022/12/05 15:20:46;;;;;;;23.38;11.85;;;;;;;;;;7389937;19;20010;-82
2022/12/05 15:23:30;;;;;;;24.35;11.02;;;;;;;;;;7383254;19;20003;-79
2022/12/05 15:25:55;;;;;;;43.05;12.63;;;;;;;;;;7391833;19;20018;-80
2022/12/05 15:28:20;;;;;;;24.63;11.65;;;;;;;;;;7392798;19;20571;-81
2022/12/05 15:30:54;;;;;;;27.30;11.32;;;;;;;;;;7394191;19;20105;-80
2022/12/05 15:33:19;;;;;;;22.40;11.07;;;;;;;;;;7391593;19;20383;-81
2022/12/05 15:35:47;;;;;;;30.17;11.60;;;;;;;;;;7362837;19;20128;-79
2022/12/05 15:38:32;;;;;;;28.27;11.48;;;;;;;;;;7383900;19;19999;-78
2022/12/05 15:40:57;;;;;;;50.70;12.73;;;;;;;;;;7379257;19;20007;-81
2022/12/05 15:43:26;;;;;;;19.02;10.52;;;;;;;;;;7380365;19;20005;-79
2022/12/05 15:46:02;;;;;;;24.75;10.05;;;;;;;;;;7392880;19;20006;-80
2022/12/05 15:48:27;;;;;;;36.70;12.10;;;;;;;;;;7360367;19;20018;-82
2022/12/05 15:50:52;;;;;;;34.05;10.80;;;;;;;;;;7358847;19;20483;-80
2022/12/05 15:53:28;;;;;;;34.28;10.60;;;;;;;;;;7346275;19;20128;-80
2022/12/05 15:56:02;;;;;;;45.47;11.43;;;;;;;;;;7361360;19;20018;-80
2022/12/05 15:58:30;;;;;;;23.52;10.50;;;;;;;;;;7361375;19;20043;-81
2022/12/05 16:01:03;;;;;;;22.40;10.65;;;;;;;;;;7368647;19;20055;-83
2022/12/05 16:03:45;;;;;;;20.08;10.70;;;;;;;;;;7360847;19;20013;-80
2022/12/05 16:06:17;;;;;;;16.95;10.35;;;;;;;;;;7359362;19;20018;-81
2022/12/05 16:08:44;;;;;;;17.52;9.65;;;;;;;;;;7359647;19;20015;-79
2022/12/05 16:11:09;;;;;;;18.77;10.48;;;;;;;;;;7361320;19;20043;-81
2022/12/05 16:13:35;;;;;;;17.35;9.85;;;;;;;;;;7362129;19;20047;-80
2022/12/05 16:16:01;;;;;;;20.17;10.75;;;;;;;;;;7348067;19;20013;-81
2022/12/05 16:18:28;;;;;;;19.23;11.18;;;;;;;;;;7348115;19;20622;-83
2022/12/05 16:20:53;;;;;;;17.10;9.57;;;;;;;;;;7347024;19;20011;-80
2022/12/05 16:23:23;;;;;;;20.80;10.32;;;;;;;;;;7345484;19;20281;-80
2022/12/05 16:25:49;;;;;;;16.98;9.40;;;;;;;;;;7362093;19;20463;-82
2022/12/05 16:28:16;;;;;;;18.17;10.32;;;;;;;;;;7357860;19;19994;-80
2022/12/05 16:30:52;;;;;;;18.33;9.73;;;;;;;;;;7363127;19;20015;-79
2022/12/05 16:33:17;;;;;;;19.35;10.13;;;;;;;;;;7355461;19;20006;-81
2022/12/05 16:35:45;;;;;;;19.83;10.05;;;;;;;;;;7363303;19;20015;-80
2022/12/05 16:38:18;;;;;;;18.77;10.02;;;;;;;;;;7353315;19;20009;-81
2022/12/05 16:40:43;;;;;;;23.23;10.77;;;;;;;;;;7363531;19;20014;-81
2022/12/05 16:43:22;;;;;;;19.57;10.87;;;;;;;;;;7363217;19;20001;-82
2022/12/05 16:45:48;;;;;;;18.73;10.55;;;;;;;;;;7367744;19;20263;-79
2022/12/05 16:48:35;;;;;;;18.80;10.57;;;;;;;;;;7335783;19;20086;-80
2022/12/05 16:51:12;;;;;;;18.88;10.63;;;;;;;;;;7364975;19;20083;-81
2022/12/05 16:53:38;;;;;;;19.48;10.48;;;;;;;;;;7354481;19;20021;-80
2022/12/05 16:56:04;;;;;;;23.58;11.70;;;;;;;;;;7355361;19;20006;-82
2022/12/05 16:58:29;;;;;;;25.35;13.07;;;;;;;;;;7366899;19;20058;-79
2022/12/05 17:01:03;;;;;;;21.70;11.68;;;;;;;;;;7370089;19;19990;-79
2022/12/05 17:03:28;;;;;;;24.73;11.65;;;;;;;;;;7365016;19;20014;-82
2022/12/05 17:05:54;;;;;;;23.05;12.65;;;;;;;;;;7357448;19;20006;-82
2022/12/05 17:08:19;;;;;;;21.65;11.38;;;;;;;;;;7359033;19;19994;-80
2022/12/05 17:10:45;;;;;;;20.23;10.98;;;;;;;;;;7369276;19;20014;-81
2022/12/05 17:13:13;;;;;;;21.70;11.30;;;;;;;;;;7367521;19;20468;-81
2022/12/05 17:15:38;;;;;;;20.25;11.18;;;;;;;;;;7369609;19;20013;-81
2022/12/05 17:18:06;;;;;;;21.30;11.30;;;;;;;;;;7363724;19;20082;-81
2022/12/05 17:20:31;;;;;;;19.60;10.52;;;;;;;;;;7369067;19;20001;-79
2022/12/05 17:22:56;;;;;;;26.65;12.38;;;;;;;;;;7364389;19;20010;-81
2022/12/05 17:25:27;;;;;;;23.23;12.52;;;;;;;;;;7362175;19;20007;-80
2022/12/05 17:27:52;;;;;;;23.25;11.65;;;;;;;;;;7371189;19;20041;-82
2022/12/05 17:30:18;;;;;;;24.85;11.45;;;;;;;;;;7367538;19;20123;-79
2022/12/05 17:32:43;;;;;;;23.15;11.40;;;;;;;;;;7363178;19;19998;-80
2022/12/05 17:35:13;;;;;;;21.73;11.35;;;;;;;;;;7367187;19;20034;-82
2022/12/05 17:37:38;;;;;;;23.50;10.98;;;;;;;;;;7366518;19;20030;-79
2022/12/05 17:40:04;;;;;;;53.05;13.55;;;;;;;;;;7365451;19;20078;-78
2022/12/05 17:42:30;;;;;;;25.30;11.05;;;;;;;;;;7368838;19;20515;-78
2022/12/05 17:44:55;;;;;;;44.58;14.63;;;;;;;;;;7367299;19;20112;-82
2022/12/05 17:47:20;;;;;;;21.50;11.82;;;;;;;;;;7362094;19;20007;-79
2022/12/05 17:49:45;;;;;;;19.58;11.77;;;;;;;;;;7363887;19;20591;-80
2022/12/05 17:52:11;;;;;;;21.02;11.60;;;;;;;;;;7360010;19;20010;-82
2022/12/05 23:02:39;;;;;;;17.17;11.85;;;;;;;;;;7316101;19;20562;-79
2022/12/05 23:05:04;;;;;;;19.48;12.23;;;;;;;;;;7313982;19;20042;-76
2022/12/05 23:07:30;;;;;;;16.77;12.13;;;;;;;;;;7354126;19;19999;-78
2022/12/05 23:09:55;;;;;;;19.77;13.23;;;;;;;;;;7346956;19;19999;-77
2022/12/05 23:12:20;;;;;;;19.45;11.90;;;;;;;;;;7361061;19;19999;-77
2022/12/05 23:14:45;;;;;;;17.95;12.88;;;;;;;;;;7361752;19;20010;-77
2022/12/05 23:17:10;;;;;;;20.52;14.25;;;;;;;;;;7361176;19;20007;-77
2022/12/05 23:19:36;;;;;;;19.13;13.07;;;;;;;;;;7356000;19;20348;-77
2022/12/05 23:22:01;;;;;;;17.92;12.88;;;;;;;;;;7361942;19;20018;-77
2022/12/05 23:24:26;;;;;;;20.17;14.43;;;;;;;;;;7360446;19;20442;-77
2022/12/05 23:26:51;;;;;;;23.35;16.00;;;;;;;;;;7362534;19;20067;-77
2022/12/05 23:29:16;;;;;;;24.65;15.80;;;;;;;;;;7363269;19;20015;-76
2022/12/05 23:31:42;;;;;;;23.05;15.55;;;;;;;;;;7359570;19;20117;-77
2022/12/05 23:34:07;;;;;;;23.48;15.23;;;;;;;;;;7345266;19;20431;-77
2022/12/05 23:36:33;;;;;;;24.88;15.93;;;;;;;;;;7349386;19;20443;-77
2022/12/05 23:38:58;;;;;;;23.90;16.40;;;;;;;;;;7352553;19;20021;-76
2022/12/05 23:41:24;;;;;;;25.00;15.80;;;;;;;;;;7360821;19;20025;-77
2022/12/05 23:43:50;;;;;;;22.55;15.77;;;;;;;;;;7362708;19;20030;-76
2022/12/05 23:46:17;;;;;;;20.90;15.27;;;;;;;;;;7359329;19;20018;-77
2022/12/05 23:48:42;;;;;;;23.00;15.85;;;;;;;;;;7360227;19;20013;-78
2022/12/05 23:51:12;;;;;;;23.92;15.88;;;;;;;;;;7361085;19;20550;-77
2022/12/05 23:53:38;;;;;;;22.92;15.55;;;;;;;;;;7359882;19;20074;-77
2022/12/05 23:56:07;;;;;;;21.50;15.60;;;;;;;;;;7359827;19;20023;-77
2022/12/05 23:58:32;;;;;;;23.50;16.23;;;;;;;;;;7364286;19;20074;-77
